Delta Virtual Airport Information Service

Fort Lauderdale Hollywood International Airport

ICAO: KFLL Country: United States
Latitude: 26.0726 Longitude: -80.1527
Latest Arrival : NKS403 (1B) (KATL-KFLL) Latest Departure : DALJUMP (KFLL-KLGA)


WX CaptureLIVE
Data provided by noaa.gov | Fetched at 08:35:16

METAR : KFLL 041253Z 19005KT 10SM FEW025 FEW075 BKN250 29/26 A2997 RMK AO2 SLP150 T02940261

TAF : KFLL 041138Z 0412/0518 17006KT P6SM VCSH SCT035 SCT060 FM041500 15010KT P6SM VCTS SCT025CB BKN050 FM050300 VRB05KT P6SM FEW030 SCT060 FM051500 14010KT P6SM VCTS SCT025CB BKN060


Runway Data for KFLL
Data provided by openaviationdata.com

Runway ID Mag Var Hdg Length Elevation Surface ILS Freq ILS Id ILS Slope
09L -5 95° 8994 ft 9 ft Asphalt 110.1 ILHI 3
09R -5 95° 5272 ft 9 ft Asphalt 108.5 IFLL 0
13 -5 140° 6938 ft 9 ft Asphalt 109.35 ILID 0
27L -5 275° 5272 ft 9 ft Asphalt -- -- --
27R -5 275° 8994 ft 9 ft Asphalt 110.7 IUDL 3
31 -5 320° 6938 ft 9 ft Asphalt -- -- --

Fort Lauderdale Hollywood International Airport, United States
Use only for reference purposes



Not for navigational purposes.